sensor_id;sensor_type;location;lat;lon;timestamp;P1;durP1;ratioP1;P2;durP2;ratioP2
19386;SDS011;9829;48.142;16.382;2022-07-23T00:01:20;14.63;;;9.38;;
19386;SDS011;9829;48.142;16.382;2022-07-23T00:03:47;14.77;;;9.95;;
19386;SDS011;9829;48.142;16.382;2022-07-23T00:06:16;21.75;;;10.23;;
19386;SDS011;9829;48.142;16.382;2022-07-23T00:08:43;15.65;;;9.75;;
19386;SDS011;9829;48.142;16.382;2022-07-23T00:11:10;20.33;;;9.93;;
19386;SDS011;9829;48.142;16.382;2022-07-23T00:13:37;12.50;;;9.35;;
19386;SDS011;9829;48.142;16.382;2022-07-23T00:16:04;18.52;;;10.57;;
19386;SDS011;9829;48.142;16.382;2022-07-23T00:18:31;17.00;;;10.07;;
19386;SDS011;9829;48.142;16.382;2022-07-23T00:20:58;15.77;;;10.57;;
19386;SDS011;9829;48.142;16.382;2022-07-23T00:23:27;13.90;;;10.48;;
19386;SDS011;9829;48.142;16.382;2022-07-23T00:25:55;15.73;;;10.20;;
19386;SDS011;9829;48.142;16.382;2022-07-23T00:28:23;11.02;;;9.90;;
19386;SDS011;9829;48.142;16.382;2022-07-23T00:30:50;13.70;;;9.95;;
19386;SDS011;9829;48.142;16.382;2022-07-23T00:33:17;22.17;;;10.60;;
19386;SDS011;9829;48.142;16.382;2022-07-23T00:35:44;18.58;;;10.35;;
19386;SDS011;9829;48.142;16.382;2022-07-23T00:38:11;11.98;;;10.30;;
19386;SDS011;9829;48.142;16.382;2022-07-23T00:40:39;17.92;;;10.20;;
19386;SDS011;9829;48.142;16.382;2022-07-23T00:43:06;15.80;;;10.38;;
19386;SDS011;9829;48.142;16.382;2022-07-23T00:45:34;12.73;;;10.45;;
19386;SDS011;9829;48.142;16.382;2022-07-23T00:48:01;18.67;;;10.32;;
19386;SDS011;9829;48.142;16.382;2022-07-23T00:50:28;19.17;;;10.05;;
19386;SDS011;9829;48.142;16.382;2022-07-23T00:52:56;11.90;;;9.80;;
19386;SDS011;9829;48.142;16.382;2022-07-23T00:55:23;14.30;;;10.50;;
19386;SDS011;9829;48.142;16.382;2022-07-23T00:57:51;10.85;;;9.50;;
19386;SDS011;9829;48.142;16.382;2022-07-23T01:00:19;22.08;;;10.15;;
19386;SDS011;9829;48.142;16.382;2022-07-23T01:02:47;13.48;;;10.40;;
19386;SDS011;9829;48.142;16.382;2022-07-23T01:05:14;14.07;;;9.57;;
19386;SDS011;9829;48.142;16.382;2022-07-23T01:07:42;12.80;;;9.90;;
19386;SDS011;9829;48.142;16.382;2022-07-23T01:10:10;14.00;;;9.85;;
19386;SDS011;9829;48.142;16.382;2022-07-23T01:12:52;19.85;;;9.93;;
19386;SDS011;9829;48.142;16.382;2022-07-23T01:15:19;13.10;;;9.93;;
19386;SDS011;9829;48.142;16.382;2022-07-23T01:17:47;11.93;;;9.32;;
19386;SDS011;9829;48.142;16.382;2022-07-23T01:20:14;12.63;;;9.60;;
19386;SDS011;9829;48.142;16.382;2022-07-23T01:22:42;15.25;;;9.23;;
19386;SDS011;9829;48.142;16.382;2022-07-23T01:25:10;11.80;;;8.85;;
19386;SDS011;9829;48.142;16.382;2022-07-23T01:27:37;10.77;;;9.30;;
19386;SDS011;9829;48.142;16.382;2022-07-23T01:30:04;14.55;;;8.98;;
19386;SDS011;9829;48.142;16.382;2022-07-23T01:32:32;9.95;;;7.72;;
19386;SDS011;9829;48.142;16.382;2022-07-23T01:34:59;9.48;;;8.23;;
19386;SDS011;9829;48.142;16.382;2022-07-23T01:37:26;12.23;;;8.35;;
19386;SDS011;9829;48.142;16.382;2022-07-23T01:39:54;9.40;;;8.38;;
19386;SDS011;9829;48.142;16.382;2022-07-23T01:42:21;8.77;;;7.93;;
19386;SDS011;9829;48.142;16.382;2022-07-23T01:44:48;8.10;;;7.30;;
19386;SDS011;9829;48.142;16.382;2022-07-23T01:47:15;8.38;;;7.32;;
19386;SDS011;9829;48.142;16.382;2022-07-23T01:49:42;8.13;;;7.18;;
19386;SDS011;9829;48.142;16.382;2022-07-23T01:52:09;9.65;;;7.60;;
19386;SDS011;9829;48.142;16.382;2022-07-23T01:54:37;8.95;;;8.25;;
19386;SDS011;9829;48.142;16.382;2022-07-23T01:57:06;8.90;;;8.15;;
19386;SDS011;9829;48.142;16.382;2022-07-23T01:59:33;11.15;;;7.88;;
19386;SDS011;9829;48.142;16.382;2022-07-23T02:02:00;8.75;;;7.85;;
19386;SDS011;9829;48.142;16.382;2022-07-23T02:04:28;9.35;;;8.15;;
19386;SDS011;9829;48.142;16.382;2022-07-23T02:06:55;9.00;;;8.20;;
19386;SDS011;9829;48.142;16.382;2022-07-23T02:09:22;10.10;;;8.07;;
19386;SDS011;9829;48.142;16.382;2022-07-23T02:11:49;10.32;;;8.48;;
19386;SDS011;9829;48.142;16.382;2022-07-23T02:14:17;9.40;;;8.50;;
19386;SDS011;9829;48.142;16.382;2022-07-23T02:16:44;13.48;;;9.48;;
19386;SDS011;9829;48.142;16.382;2022-07-23T02:19:11;14.27;;;9.57;;
19386;SDS011;9829;48.142;16.382;2022-07-23T02:21:38;12.73;;;8.68;;
19386;SDS011;9829;48.142;16.382;2022-07-23T02:24:05;10.70;;;8.98;;
19386;SDS011;9829;48.142;16.382;2022-07-23T02:26:32;10.52;;;9.48;;
19386;SDS011;9829;48.142;16.382;2022-07-23T02:29:00;14.05;;;9.55;;
19386;SDS011;9829;48.142;16.382;2022-07-23T02:31:28;11.30;;;8.80;;
19386;SDS011;9829;48.142;16.382;2022-07-23T02:33:55;15.00;;;8.93;;
19386;SDS011;9829;48.142;16.382;2022-07-23T02:36:23;11.55;;;9.43;;
19386;SDS011;9829;48.142;16.382;2022-07-23T02:38:49;10.43;;;8.82;;
19386;SDS011;9829;48.142;16.382;2022-07-23T02:41:16;10.65;;;9.65;;
19386;SDS011;9829;48.142;16.382;2022-07-23T02:43:43;10.68;;;8.85;;
19386;SDS011;9829;48.142;16.382;2022-07-23T02:46:10;12.07;;;9.88;;
19386;SDS011;9829;48.142;16.382;2022-07-23T02:48:39;15.60;;;9.80;;
19386;SDS011;9829;48.142;16.382;2022-07-23T02:51:06;10.88;;;9.73;;
19386;SDS011;9829;48.142;16.382;2022-07-23T02:53:33;10.38;;;9.38;;
19386;SDS011;9829;48.142;16.382;2022-07-23T02:56:00;11.10;;;9.95;;
19386;SDS011;9829;48.142;16.382;2022-07-23T02:58:27;10.25;;;9.30;;
19386;SDS011;9829;48.142;16.382;2022-07-23T03:00:54;16.80;;;9.32;;
19386;SDS011;9829;48.142;16.382;2022-07-23T03:03:21;15.93;;;10.07;;
19386;SDS011;9829;48.142;16.382;2022-07-23T03:05:49;20.08;;;9.32;;
19386;SDS011;9829;48.142;16.382;2022-07-23T03:08:16;10.48;;;9.35;;
19386;SDS011;9829;48.142;16.382;2022-07-23T03:10:43;10.45;;;9.43;;
19386;SDS011;9829;48.142;16.382;2022-07-23T03:13:10;10.43;;;8.70;;
19386;SDS011;9829;48.142;16.382;2022-07-23T03:15:36;13.45;;;9.43;;
19386;SDS011;9829;48.142;16.382;2022-07-23T03:18:04;10.38;;;9.38;;
19386;SDS011;9829;48.142;16.382;2022-07-23T03:20:31;13.68;;;9.98;;
19386;SDS011;9829;48.142;16.382;2022-07-23T03:22:59;10.10;;;9.07;;
19386;SDS011;9829;48.142;16.382;2022-07-23T03:25:26;13.93;;;9.32;;
19386;SDS011;9829;48.142;16.382;2022-07-23T03:27:53;11.20;;;9.60;;
19386;SDS011;9829;48.142;16.382;2022-07-23T03:30:20;12.45;;;9.73;;
19386;SDS011;9829;48.142;16.382;2022-07-23T03:32:47;9.93;;;8.90;;
19386;SDS011;9829;48.142;16.382;2022-07-23T03:35:14;10.52;;;9.70;;
19386;SDS011;9829;48.142;16.382;2022-07-23T03:37:41;13.30;;;9.55;;
19386;SDS011;9829;48.142;16.382;2022-07-23T03:40:10;13.00;;;9.50;;
19386;SDS011;9829;48.142;16.382;2022-07-23T03:42:37;14.60;;;9.73;;
19386;SDS011;9829;48.142;16.382;2022-07-23T03:45:06;11.23;;;10.07;;
19386;SDS011;9829;48.142;16.382;2022-07-23T03:47:33;11.60;;;9.23;;
19386;SDS011;9829;48.142;16.382;2022-07-23T03:50:00;12.85;;;9.70;;
19386;SDS011;9829;48.142;16.382;2022-07-23T03:52:27;14.23;;;10.65;;
19386;SDS011;9829;48.142;16.382;2022-07-23T03:54:54;11.60;;;10.15;;
19386;SDS011;9829;48.142;16.382;2022-07-23T03:57:22;11.65;;;9.45;;
19386;SDS011;9829;48.142;16.382;2022-07-23T03:59:49;14.50;;;9.32;;
19386;SDS011;9829;48.142;16.382;2022-07-23T04:02:16;10.38;;;9.25;;
19386;SDS011;9829;48.142;16.382;2022-07-23T04:04:43;11.10;;;9.88;;
19386;SDS011;9829;48.142;16.382;2022-07-23T04:07:10;11.60;;;9.88;;
19386;SDS011;9829;48.142;16.382;2022-07-23T04:09:37;10.18;;;9.27;;
19386;SDS011;9829;48.142;16.382;2022-07-23T04:12:05;10.50;;;9.52;;
19386;SDS011;9829;48.142;16.382;2022-07-23T04:14:34;12.20;;;9.85;;
19386;SDS011;9829;48.142;16.382;2022-07-23T04:17:02;11.35;;;9.77;;
19386;SDS011;9829;48.142;16.382;2022-07-23T04:19:29;10.77;;;9.65;;
19386;SDS011;9829;48.142;16.382;2022-07-23T04:21:56;11.05;;;9.30;;
19386;SDS011;9829;48.142;16.382;2022-07-23T04:24:23;14.88;;;9.38;;
19386;SDS011;9829;48.142;16.382;2022-07-23T04:26:50;9.95;;;8.95;;
19386;SDS011;9829;48.142;16.382;2022-07-23T04:29:18;11.40;;;9.40;;
19386;SDS011;9829;48.142;16.382;2022-07-23T04:31:46;10.45;;;9.45;;
19386;SDS011;9829;48.142;16.382;2022-07-23T04:34:13;11.15;;;10.00;;
19386;SDS011;9829;48.142;16.382;2022-07-23T04:36:40;23.17;;;9.85;;
19386;SDS011;9829;48.142;16.382;2022-07-23T04:39:07;12.27;;;9.70;;
19386;SDS011;9829;48.142;16.382;2022-07-23T04:41:34;15.38;;;9.63;;
19386;SDS011;9829;48.142;16.382;2022-07-23T04:44:01;14.13;;;9.85;;
19386;SDS011;9829;48.142;16.382;2022-07-23T04:46:28;12.07;;;9.50;;
19386;SDS011;9829;48.142;16.382;2022-07-23T04:48:57;11.20;;;9.55;;
19386;SDS011;9829;48.142;16.382;2022-07-23T04:51:23;10.75;;;9.75;;
19386;SDS011;9829;48.142;16.382;2022-07-23T04:53:50;10.82;;;9.00;;
19386;SDS011;9829;48.142;16.382;2022-07-23T04:56:17;17.20;;;9.68;;
19386;SDS011;9829;48.142;16.382;2022-07-23T04:58:44;13.80;;;9.80;;
19386;SDS011;9829;48.142;16.382;2022-07-23T05:01:11;20.95;;;9.35;;
19386;SDS011;9829;48.142;16.382;2022-07-23T05:03:38;11.65;;;8.80;;
19386;SDS011;9829;48.142;16.382;2022-07-23T05:06:06;11.68;;;9.75;;
19386;SDS011;9829;48.142;16.382;2022-07-23T05:08:33;11.45;;;9.32;;
19386;SDS011;9829;48.142;16.382;2022-07-23T05:11:00;12.25;;;9.30;;
19386;SDS011;9829;48.142;16.382;2022-07-23T05:13:27;17.73;;;8.98;;
19386;SDS011;9829;48.142;16.382;2022-07-23T05:15:54;11.85;;;9.57;;
19386;SDS011;9829;48.142;16.382;2022-07-23T05:18:21;13.98;;;9.18;;
19386;SDS011;9829;48.142;16.382;2022-07-23T05:20:48;10.52;;;8.52;;
19386;SDS011;9829;48.142;16.382;2022-07-23T05:23:16;15.25;;;8.82;;
19386;SDS011;9829;48.142;16.382;2022-07-23T05:25:43;9.63;;;8.43;;
19386;SDS011;9829;48.142;16.382;2022-07-23T05:28:10;8.63;;;7.70;;
19386;SDS011;9829;48.142;16.382;2022-07-23T05:30:37;8.35;;;7.63;;
19386;SDS011;9829;48.142;16.382;2022-07-23T05:33:04;10.52;;;7.20;;
19386;SDS011;9829;48.142;16.382;2022-07-23T05:35:32;10.43;;;6.93;;
19386;SDS011;9829;48.142;16.382;2022-07-23T05:37:59;7.15;;;6.45;;
19386;SDS011;9829;48.142;16.382;2022-07-23T05:40:27;6.65;;;5.82;;
19386;SDS011;9829;48.142;16.382;2022-07-23T05:42:55;7.55;;;5.97;;
19386;SDS011;9829;48.142;16.382;2022-07-23T05:45:21;6.30;;;5.65;;
19386;SDS011;9829;48.142;16.382;2022-07-23T05:47:48;7.07;;;5.57;;
19386;SDS011;9829;48.142;16.382;2022-07-23T05:50:16;12.65;;;5.78;;
19386;SDS011;9829;48.142;16.382;2022-07-23T05:52:43;10.25;;;5.85;;
19386;SDS011;9829;48.142;16.382;2022-07-23T05:55:11;11.23;;;5.72;;
19386;SDS011;9829;48.142;16.382;2022-07-23T05:57:40;14.93;;;5.50;;
19386;SDS011;9829;48.142;16.382;2022-07-23T06:00:08;10.82;;;6.35;;
19386;SDS011;9829;48.142;16.382;2022-07-23T06:02:37;9.52;;;5.72;;
19386;SDS011;9829;48.142;16.382;2022-07-23T06:05:05;9.45;;;5.32;;
19386;SDS011;9829;48.142;16.382;2022-07-23T06:07:34;13.73;;;4.90;;
19386;SDS011;9829;48.142;16.382;2022-07-23T06:10:01;13.73;;;8.05;;
19386;SDS011;9829;48.142;16.382;2022-07-23T06:12:27;6.22;;;4.63;;
19386;SDS011;9829;48.142;16.382;2022-07-23T06:14:56;5.18;;;4.68;;
19386;SDS011;9829;48.142;16.382;2022-07-23T06:17:23;10.63;;;4.72;;
19386;SDS011;9829;48.142;16.382;2022-07-23T06:19:50;5.13;;;4.80;;
19386;SDS011;9829;48.142;16.382;2022-07-23T06:22:17;5.55;;;5.15;;
19386;SDS011;9829;48.142;16.382;2022-07-23T06:24:44;6.47;;;5.15;;
19386;SDS011;9829;48.142;16.382;2022-07-23T06:27:11;5.60;;;5.20;;
19386;SDS011;9829;48.142;16.382;2022-07-23T06:29:38;6.78;;;5.55;;
19386;SDS011;9829;48.142;16.382;2022-07-23T06:32:07;10.20;;;5.53;;
19386;SDS011;9829;48.142;16.382;2022-07-23T06:34:34;9.73;;;5.20;;
19386;SDS011;9829;48.142;16.382;2022-07-23T06:37:01;7.05;;;4.78;;
19386;SDS011;9829;48.142;16.382;2022-07-23T06:39:28;19.92;;;5.20;;
19386;SDS011;9829;48.142;16.382;2022-07-23T06:41:55;13.98;;;4.60;;
19386;SDS011;9829;48.142;16.382;2022-07-23T06:44:22;13.23;;;4.25;;
19386;SDS011;9829;48.142;16.382;2022-07-23T06:46:48;4.30;;;4.00;;
19386;SDS011;9829;48.142;16.382;2022-07-23T06:49:17;7.25;;;4.70;;
19386;SDS011;9829;48.142;16.382;2022-07-23T06:51:44;4.88;;;3.85;;
19386;SDS011;9829;48.142;16.382;2022-07-23T06:54:11;4.45;;;3.72;;
19386;SDS011;9829;48.142;16.382;2022-07-23T06:56:38;3.92;;;3.63;;
19386;SDS011;9829;48.142;16.382;2022-07-23T06:59:05;10.43;;;3.65;;
19386;SDS011;9829;48.142;16.382;2022-07-23T07:01:32;8.25;;;3.40;;
19386;SDS011;9829;48.142;16.382;2022-07-23T07:03:59;4.88;;;3.22;;
19386;SDS011;9829;48.142;16.382;2022-07-23T07:06:27;3.97;;;3.40;;
19386;SDS011;9829;48.142;16.382;2022-07-23T07:08:54;4.75;;;2.92;;
19386;SDS011;9829;48.142;16.382;2022-07-23T07:11:21;3.03;;;2.85;;
19386;SDS011;9829;48.142;16.382;2022-07-23T07:13:50;9.43;;;3.00;;
19386;SDS011;9829;48.142;16.382;2022-07-23T07:16:17;8.63;;;3.00;;
19386;SDS011;9829;48.142;16.382;2022-07-23T07:18:44;4.22;;;2.88;;
19386;SDS011;9829;48.142;16.382;2022-07-23T07:21:11;10.57;;;2.95;;
19386;SDS011;9829;48.142;16.382;2022-07-23T07:23:39;5.60;;;2.67;;
19386;SDS011;9829;48.142;16.382;2022-07-23T07:26:06;5.53;;;2.50;;
19386;SDS011;9829;48.142;16.382;2022-07-23T07:28:33;7.72;;;2.75;;
19386;SDS011;9829;48.142;16.382;2022-07-23T07:31:03;6.72;;;2.78;;
19386;SDS011;9829;48.142;16.382;2022-07-23T07:33:30;7.45;;;2.30;;
19386;SDS011;9829;48.142;16.382;2022-07-23T07:35:57;2.88;;;2.30;;
19386;SDS011;9829;48.142;16.382;2022-07-23T07:38:25;9.63;;;2.58;;
19386;SDS011;9829;48.142;16.382;2022-07-23T07:40:53;4.15;;;2.40;;
19386;SDS011;9829;48.142;16.382;2022-07-23T07:43:20;5.63;;;2.47;;
19386;SDS011;9829;48.142;16.382;2022-07-23T07:45:47;5.05;;;2.30;;
19386;SDS011;9829;48.142;16.382;2022-07-23T07:48:14;3.42;;;2.08;;
19386;SDS011;9829;48.142;16.382;2022-07-23T07:50:41;2.38;;;2.13;;
19386;SDS011;9829;48.142;16.382;2022-07-23T07:53:08;2.50;;;2.30;;
19386;SDS011;9829;48.142;16.382;2022-07-23T07:55:35;3.25;;;2.22;;
19386;SDS011;9829;48.142;16.382;2022-07-23T07:58:04;3.10;;;2.17;;
19386;SDS011;9829;48.142;16.382;2022-07-23T08:00:31;2.53;;;2.25;;
19386;SDS011;9829;48.142;16.382;2022-07-23T08:02:58;2.55;;;2.35;;
19386;SDS011;9829;48.142;16.382;2022-07-23T08:05:27;2.28;;;2.10;;
19386;SDS011;9829;48.142;16.382;2022-07-23T08:07:55;2.50;;;2.30;;
19386;SDS011;9829;48.142;16.382;2022-07-23T08:10:23;2.60;;;2.40;;
19386;SDS011;9829;48.142;16.382;2022-07-23T08:12:51;2.47;;;2.38;;
19386;SDS011;9829;48.142;16.382;2022-07-23T08:15:21;2.90;;;2.70;;
19386;SDS011;9829;48.142;16.382;2022-07-23T08:17:49;3.20;;;2.35;;
19386;SDS011;9829;48.142;16.382;2022-07-23T08:20:17;3.17;;;2.42;;
19386;SDS011;9829;48.142;16.382;2022-07-23T08:22:46;2.85;;;2.65;;
19386;SDS011;9829;48.142;16.382;2022-07-23T08:25:14;2.92;;;2.75;;
19386;SDS011;9829;48.142;16.382;2022-07-23T08:27:42;2.80;;;2.60;;
19386;SDS011;9829;48.142;16.382;2022-07-23T08:30:09;8.30;;;3.30;;
19386;SDS011;9829;48.142;16.382;2022-07-23T08:32:50;2.70;;;2.58;;
19386;SDS011;9829;48.142;16.382;2022-07-23T08:35:21;4.18;;;3.00;;
19386;SDS011;9829;48.142;16.382;2022-07-23T08:37:50;6.43;;;3.10;;
19386;SDS011;9829;48.142;16.382;2022-07-23T08:40:17;4.70;;;3.08;;
19386;SDS011;9829;48.142;16.382;2022-07-23T08:42:44;6.28;;;2.88;;
19386;SDS011;9829;48.142;16.382;2022-07-23T08:45:15;3.80;;;2.88;;
19386;SDS011;9829;48.142;16.382;2022-07-23T08:47:45;5.50;;;2.70;;
19386;SDS011;9829;48.142;16.382;2022-07-23T08:50:15;8.10;;;3.22;;
19386;SDS011;9829;48.142;16.382;2022-07-23T08:52:43;4.15;;;2.88;;
19386;SDS011;9829;48.142;16.382;2022-07-23T08:55:10;3.05;;;2.83;;
19386;SDS011;9829;48.142;16.382;2022-07-23T08:57:37;5.05;;;2.38;;
19386;SDS011;9829;48.142;16.382;2022-07-23T09:00:04;3.83;;;2.80;;
19386;SDS011;9829;48.142;16.382;2022-07-23T09:02:38;3.97;;;2.70;;
19386;SDS011;9829;48.142;16.382;2022-07-23T09:05:06;2.70;;;2.50;;
19386;SDS011;9829;48.142;16.382;2022-07-23T09:07:35;3.50;;;2.75;;
19386;SDS011;9829;48.142;16.382;2022-07-23T09:10:06;4.32;;;3.13;;
19386;SDS011;9829;48.142;16.382;2022-07-23T09:15:51;3.47;;;2.70;;
19386;SDS011;9829;48.142;16.382;2022-07-23T09:18:20;3.33;;;2.90;;
19386;SDS011;9829;48.142;16.382;2022-07-23T09:21:05;2.65;;;2.50;;
19386;SDS011;9829;48.142;16.382;2022-07-23T09:23:41;4.75;;;2.80;;
19386;SDS011;9829;48.142;16.382;2022-07-23T09:26:22;3.22;;;2.95;;
19386;SDS011;9829;48.142;16.382;2022-07-23T09:28:57;2.83;;;2.70;;
19386;SDS011;9829;48.142;16.382;2022-07-23T09:31:33;2.97;;;2.78;;
19386;SDS011;9829;48.142;16.382;2022-07-23T09:34:08;3.25;;;3.05;;
19386;SDS011;9829;48.142;16.382;2022-07-23T09:36:36;7.00;;;2.85;;
19386;SDS011;9829;48.142;16.382;2022-07-23T09:39:05;4.10;;;3.35;;
19386;SDS011;9829;48.142;16.382;2022-07-23T09:41:36;36.78;;;3.58;;
19386;SDS011;9829;48.142;16.382;2022-07-23T09:44:11;3.20;;;3.00;;
19386;SDS011;9829;48.142;16.382;2022-07-23T09:46:41;3.40;;;3.10;;
19386;SDS011;9829;48.142;16.382;2022-07-23T09:49:10;2.83;;;2.70;;
19386;SDS011;9829;48.142;16.382;2022-07-23T09:51:43;3.10;;;2.80;;
19386;SDS011;9829;48.142;16.382;2022-07-23T09:54:24;10.57;;;3.10;;
19386;SDS011;9829;48.142;16.382;2022-07-23T09:56:57;3.25;;;2.92;;
19386;SDS011;9829;48.142;16.382;2022-07-23T09:59:25;3.10;;;2.90;;
19386;SDS011;9829;48.142;16.382;2022-07-23T10:01:54;3.33;;;3.03;;
19386;SDS011;9829;48.142;16.382;2022-07-23T10:04:22;3.45;;;3.10;;
19386;SDS011;9829;48.142;16.382;2022-07-23T10:06:51;4.82;;;2.80;;
19386;SDS011;9829;48.142;16.382;2022-07-23T10:09:21;10.10;;;2.90;;
19386;SDS011;9829;48.142;16.382;2022-07-23T10:11:51;3.40;;;3.10;;
19386;SDS011;9829;48.142;16.382;2022-07-23T10:14:24;4.28;;;3.10;;
19386;SDS011;9829;48.142;16.382;2022-07-23T10:16:55;3.25;;;2.92;;
19386;SDS011;9829;48.142;16.382;2022-07-23T10:19:23;4.63;;;3.30;;
19386;SDS011;9829;48.142;16.382;2022-07-23T10:21:51;3.53;;;3.22;;
19386;SDS011;9829;48.142;16.382;2022-07-23T10:24:30;3.55;;;3.35;;
19386;SDS011;9829;48.142;16.382;2022-07-23T10:27:12;3.42;;;3.22;;
19386;SDS011;9829;48.142;16.382;2022-07-23T10:30:00;3.65;;;3.35;;
19386;SDS011;9829;48.142;16.382;2022-07-23T10:32:35;4.15;;;3.40;;
19386;SDS011;9829;48.142;16.382;2022-07-23T10:35:13;6.50;;;3.50;;
19386;SDS011;9829;48.142;16.382;2022-07-23T10:37:47;3.88;;;3.65;;
19386;SDS011;9829;48.142;16.382;2022-07-23T10:40:19;3.70;;;3.50;;
19386;SDS011;9829;48.142;16.382;2022-07-23T10:42:48;6.68;;;3.75;;
19386;SDS011;9829;48.142;16.382;2022-07-23T10:45:27;4.63;;;3.40;;
19386;SDS011;9829;48.142;16.382;2022-07-23T10:48:11;7.00;;;3.97;;
19386;SDS011;9829;48.142;16.382;2022-07-23T10:50:39;6.30;;;3.70;;
19386;SDS011;9829;48.142;16.382;2022-07-23T10:53:08;10.15;;;4.03;;
19386;SDS011;9829;48.142;16.382;2022-07-23T10:55:46;4.13;;;3.85;;
19386;SDS011;9829;48.142;16.382;2022-07-23T10:58:22;4.40;;;4.10;;
19386;SDS011;9829;48.142;16.382;2022-07-23T11:04:01;4.07;;;3.88;;
19386;SDS011;9829;48.142;16.382;2022-07-23T11:09:41;4.45;;;3.97;;
19386;SDS011;9829;48.142;16.382;2022-07-23T11:15:05;7.32;;;4.05;;
19386;SDS011;9829;48.142;16.382;2022-07-23T11:17:36;6.72;;;3.65;;
19386;SDS011;9829;48.142;16.382;2022-07-23T11:20:13;3.97;;;3.60;;
19386;SDS011;9829;48.142;16.382;2022-07-23T11:22:52;4.07;;;3.72;;
19386;SDS011;9829;48.142;16.382;2022-07-23T11:25:29;5.13;;;4.03;;
19386;SDS011;9829;48.142;16.382;2022-07-23T11:28:10;4.80;;;4.10;;
19386;SDS011;9829;48.142;16.382;2022-07-23T11:30:40;4.68;;;4.03;;
19386;SDS011;9829;48.142;16.382;2022-07-23T11:33:22;4.93;;;4.40;;
19386;SDS011;9829;48.142;16.382;2022-07-23T11:35:50;4.95;;;4.47;;
19386;SDS011;9829;48.142;16.382;2022-07-23T11:38:29;8.98;;;4.40;;
19386;SDS011;9829;48.142;16.382;2022-07-23T11:40:57;4.20;;;3.80;;
19386;SDS011;9829;48.142;16.382;2022-07-23T11:43:24;5.97;;;4.35;;
19386;SDS011;9829;48.142;16.382;2022-07-23T11:45:52;4.70;;;4.35;;
19386;SDS011;9829;48.142;16.382;2022-07-23T11:48:24;4.30;;;4.00;;
19386;SDS011;9829;48.142;16.382;2022-07-23T11:50:53;4.80;;;4.28;;
19386;SDS011;9829;48.142;16.382;2022-07-23T11:53:21;11.02;;;4.68;;
19386;SDS011;9829;48.142;16.382;2022-07-23T11:55:49;6.15;;;4.50;;
19386;SDS011;9829;48.142;16.382;2022-07-23T11:58:16;5.22;;;4.88;;
19386;SDS011;9829;48.142;16.382;2022-07-23T12:00:43;4.97;;;4.60;;
19386;SDS011;9829;48.142;16.382;2022-07-23T12:03:10;6.65;;;4.85;;
19386;SDS011;9829;48.142;16.382;2022-07-23T12:05:38;7.57;;;4.45;;
19386;SDS011;9829;48.142;16.382;2022-07-23T12:08:06;5.45;;;4.70;;
19386;SDS011;9829;48.142;16.382;2022-07-23T12:10:35;9.30;;;4.70;;
19386;SDS011;9829;48.142;16.382;2022-07-23T12:13:05;4.90;;;4.55;;
19386;SDS011;9829;48.142;16.382;2022-07-23T12:15:36;4.80;;;4.50;;
19386;SDS011;9829;48.142;16.382;2022-07-23T12:18:05;5.05;;;4.55;;
19386;SDS011;9829;48.142;16.382;2022-07-23T12:20:34;5.15;;;4.63;;
19386;SDS011;9829;48.142;16.382;2022-07-23T12:23:04;6.35;;;4.72;;
19386;SDS011;9829;48.142;16.382;2022-07-23T12:25:33;6.57;;;4.72;;
19386;SDS011;9829;48.142;16.382;2022-07-23T12:28:02;4.80;;;4.40;;
19386;SDS011;9829;48.142;16.382;2022-07-23T12:30:32;5.03;;;4.55;;
19386;SDS011;9829;48.142;16.382;2022-07-23T12:33:01;8.23;;;4.65;;
19386;SDS011;9829;48.142;16.382;2022-07-23T12:35:32;4.60;;;4.20;;
19386;SDS011;9829;48.142;16.382;2022-07-23T12:38:04;4.50;;;4.10;;
19386;SDS011;9829;48.142;16.382;2022-07-23T12:40:33;6.13;;;4.28;;
19386;SDS011;9829;48.142;16.382;2022-07-23T12:43:03;8.55;;;4.40;;
19386;SDS011;9829;48.142;16.382;2022-07-23T12:45:44;8.80;;;4.63;;
19386;SDS011;9829;48.142;16.382;2022-07-23T12:48:16;7.22;;;3.95;;
19386;SDS011;9829;48.142;16.382;2022-07-23T12:50:47;4.53;;;3.70;;
19386;SDS011;9829;48.142;16.382;2022-07-23T12:53:20;5.30;;;4.00;;
19386;SDS011;9829;48.142;16.382;2022-07-23T12:55:49;4.07;;;3.65;;
19386;SDS011;9829;48.142;16.382;2022-07-23T12:58:17;3.95;;;3.70;;
19386;SDS011;9829;48.142;16.382;2022-07-23T13:04:07;25.30;;;5.35;;
19386;SDS011;9829;48.142;16.382;2022-07-23T13:06:36;11.70;;;4.60;;
19386;SDS011;9829;48.142;16.382;2022-07-23T13:09:06;21.10;;;4.97;;
19386;SDS011;9829;48.142;16.382;2022-07-23T13:11:35;10.52;;;5.00;;
19386;SDS011;9829;48.142;16.382;2022-07-23T13:14:02;16.55;;;4.88;;
19386;SDS011;9829;48.142;16.382;2022-07-23T13:16:30;7.95;;;4.82;;
19386;SDS011;9829;48.142;16.382;2022-07-23T13:18:58;12.48;;;4.68;;
19386;SDS011;9829;48.142;16.382;2022-07-23T13:21:26;6.65;;;4.05;;
19386;SDS011;9829;48.142;16.382;2022-07-23T13:23:54;4.10;;;3.80;;
19386;SDS011;9829;48.142;16.382;2022-07-23T13:26:22;4.43;;;2.97;;
19386;SDS011;9829;48.142;16.382;2022-07-23T13:28:49;2.78;;;2.58;;
19386;SDS011;9829;48.142;16.382;2022-07-23T13:31:16;2.50;;;2.40;;
19386;SDS011;9829;48.142;16.382;2022-07-23T13:33:44;9.63;;;2.53;;
19386;SDS011;9829;48.142;16.382;2022-07-23T13:36:11;2.35;;;2.25;;
19386;SDS011;9829;48.142;16.382;2022-07-23T13:38:38;3.95;;;2.30;;
19386;SDS011;9829;48.142;16.382;2022-07-23T13:41:05;2.33;;;2.22;;
19386;SDS011;9829;48.142;16.382;2022-07-23T13:43:34;3.08;;;2.00;;
19386;SDS011;9829;48.142;16.382;2022-07-23T13:46:01;2.20;;;2.10;;
19386;SDS011;9829;48.142;16.382;2022-07-23T13:48:28;2.55;;;2.35;;
19386;SDS011;9829;48.142;16.382;2022-07-23T13:50:55;2.65;;;2.30;;
19386;SDS011;9829;48.142;16.382;2022-07-23T13:53:22;3.63;;;2.10;;
19386;SDS011;9829;48.142;16.382;2022-07-23T13:55:50;4.93;;;1.92;;
19386;SDS011;9829;48.142;16.382;2022-07-23T13:58:18;3.83;;;2.30;;
19386;SDS011;9829;48.142;16.382;2022-07-23T14:00:48;5.57;;;2.58;;
19386;SDS011;9829;48.142;16.382;2022-07-23T14:03:17;4.82;;;2.30;;
19386;SDS011;9829;48.142;16.382;2022-07-23T14:05:44;2.20;;;2.03;;
19386;SDS011;9829;48.142;16.382;2022-07-23T14:08:11;1.92;;;1.83;;
19386;SDS011;9829;48.142;16.382;2022-07-23T14:10:38;2.17;;;1.92;;
19386;SDS011;9829;48.142;16.382;2022-07-23T14:13:05;4.15;;;2.00;;
19386;SDS011;9829;48.142;16.382;2022-07-23T14:15:32;3.55;;;2.45;;
19386;SDS011;9829;48.142;16.382;2022-07-23T14:18:00;4.45;;;2.10;;
19386;SDS011;9829;48.142;16.382;2022-07-23T14:20:27;2.40;;;2.30;;
19386;SDS011;9829;48.142;16.382;2022-07-23T14:22:54;6.00;;;2.40;;
19386;SDS011;9829;48.142;16.382;2022-07-23T14:25:23;2.45;;;2.35;;
19386;SDS011;9829;48.142;16.382;2022-07-23T14:27:49;2.53;;;2.33;;
19386;SDS011;9829;48.142;16.382;2022-07-23T14:30:16;3.00;;;1.88;;
19386;SDS011;9829;48.142;16.382;2022-07-23T14:32:43;2.70;;;2.50;;
19386;SDS011;9829;48.142;16.382;2022-07-23T14:35:11;2.72;;;2.53;;
19386;SDS011;9829;48.142;16.382;2022-07-23T14:37:38;2.65;;;2.33;;
19386;SDS011;9829;48.142;16.382;2022-07-23T14:40:05;2.20;;;2.10;;
19386;SDS011;9829;48.142;16.382;2022-07-23T14:42:33;3.35;;;3.08;;
19386;SDS011;9829;48.142;16.382;2022-07-23T14:45:00;2.58;;;2.40;;
19386;SDS011;9829;48.142;16.382;2022-07-23T14:47:27;4.40;;;2.50;;
19386;SDS011;9829;48.142;16.382;2022-07-23T14:49:54;3.60;;;2.20;;
19386;SDS011;9829;48.142;16.382;2022-07-23T14:52:22;3.85;;;2.22;;
19386;SDS011;9829;48.142;16.382;2022-07-23T14:54:49;5.13;;;2.47;;
19386;SDS011;9829;48.142;16.382;2022-07-23T14:57:16;2.47;;;2.28;;
19386;SDS011;9829;48.142;16.382;2022-07-23T14:59:42;5.95;;;2.78;;
19386;SDS011;9829;48.142;16.382;2022-07-23T15:02:09;2.88;;;2.67;;
19386;SDS011;9829;48.142;16.382;2022-07-23T15:04:36;5.95;;;2.63;;